createdAt,value
2022-11-17T00:00:29.814Z,3.90
2022-11-17T00:05:32.408Z,3.90
2022-11-17T00:10:35.100Z,3.90
2022-11-17T00:15:37.803Z,3.90
2022-11-17T00:21:00.380Z,4.00
2022-11-17T00:26:03.023Z,4.00
2022-11-17T00:31:24.044Z,4.00
2022-11-17T00:36:27.050Z,4.00
2022-11-17T00:41:29.760Z,4.20
2022-11-17T00:46:33.053Z,4.00
2022-11-17T00:51:36.402Z,4.00
2022-11-17T00:56:39.499Z,4.00
2022-11-17T01:01:43.115Z,4.00
2022-11-17T01:06:49.095Z,4.00
2022-11-17T01:11:53.301Z,4.00
2022-11-17T01:16:56.508Z,3.90
2022-11-17T01:21:59.142Z,4.00
2022-11-17T01:27:01.783Z,4.00
2022-11-17T01:32:04.516Z,4.00
2022-11-17T01:37:22.118Z,4.00
2022-11-17T01:42:27.060Z,4.00
2022-11-17T01:47:58.573Z,4.00
2022-11-17T01:53:05.315Z,3.90
2022-11-17T01:58:31.738Z,4.00
2022-11-17T02:03:35.602Z,3.90
2022-11-17T02:08:41.080Z,3.90
2022-11-17T02:13:43.945Z,3.90
2022-11-17T02:18:47.068Z,3.90
2022-11-17T02:24:26.846Z,3.90
2022-11-17T02:29:43.522Z,3.90
2022-11-17T02:34:55.983Z,3.90
2022-11-17T02:40:12.853Z,3.90
2022-11-17T02:45:21.456Z,3.90
2022-11-17T02:50:28.732Z,3.90
2022-11-17T02:55:35.330Z,3.90
2022-11-17T03:01:05.360Z,3.90
2022-11-17T03:06:32.203Z,3.90
2022-11-17T03:12:05.854Z,3.90
2022-11-17T03:17:16.962Z,3.90
2022-11-17T03:22:28.359Z,3.90
2022-11-17T03:27:38.425Z,3.90
2022-11-17T03:32:46.615Z,3.90
2022-11-17T03:37:55.971Z,3.90
2022-11-17T03:43:02.468Z,3.90
2022-11-17T03:48:33.842Z,3.90
2022-11-17T03:53:37.076Z,3.90
2022-11-17T03:58:49.837Z,3.90
2022-11-17T04:03:52.431Z,3.90
2022-11-17T04:08:54.730Z,4.50
2022-11-17T04:14:15.783Z,3.90
2022-11-17T04:19:18.131Z,3.90
2022-11-17T04:24:20.468Z,3.90
2022-11-17T04:29:22.836Z,3.80
2022-11-17T04:34:25.270Z,3.80
2022-11-17T04:39:27.621Z,4.00
2022-11-17T04:44:32.014Z,3.80
2022-11-17T04:49:34.388Z,3.80
2022-11-17T04:54:36.709Z,3.80
2022-11-17T04:59:39.040Z,3.30
2022-11-17T05:04:56.700Z,4.10
2022-11-17T05:09:59.031Z,3.80
2022-11-17T05:15:01.426Z,3.70
2022-11-17T05:20:04.073Z,3.80
2022-11-17T05:25:07.330Z,3.70
2022-11-17T05:30:10.585Z,3.70
2022-11-17T05:35:12.889Z,3.60
2022-11-17T05:40:15.558Z,3.70
2022-11-17T05:45:17.900Z,3.70
2022-11-17T05:50:20.246Z,3.90
2022-11-17T05:55:22.572Z,3.70
2022-11-17T06:00:24.979Z,3.70
2022-11-17T06:05:28.029Z,3.60
2022-11-17T06:10:30.402Z,3.60
2022-11-17T06:15:34.275Z,3.60
2022-11-17T06:20:41.796Z,3.60
2022-11-17T06:25:45.182Z,3.60
2022-11-17T06:30:48.903Z,3.60
2022-11-17T06:35:51.442Z,3.60
2022-11-17T06:40:53.808Z,3.80
2022-11-17T06:45:56.103Z,3.60
2022-11-17T06:50:58.581Z,3.60
2022-11-17T06:56:01.963Z,3.60
2022-11-17T07:01:07.028Z,3.60
2022-11-17T07:06:11.523Z,3.60
2022-11-17T07:11:16.534Z,3.90
2022-11-17T07:16:24.061Z,3.70
2022-11-17T07:21:26.761Z,3.70
2022-11-17T07:26:29.490Z,3.70
2022-11-17T07:31:31.795Z,3.70
2022-11-17T07:36:34.113Z,3.60
2022-11-17T07:41:36.441Z,3.60
2022-11-17T07:46:42.607Z,3.70
2022-11-17T07:51:45.008Z,3.70
2022-11-17T07:56:47.392Z,3.70
2022-11-17T08:01:49.693Z,3.70
2022-11-17T08:06:52.170Z,3.70
2022-11-17T08:11:54.703Z,3.70
2022-11-17T08:16:57.019Z,3.70
2022-11-17T08:21:59.370Z,3.70
2022-11-17T08:27:01.671Z,3.60
2022-11-17T08:32:04.163Z,3.60
2022-11-17T08:37:06.592Z,3.60
2022-11-17T08:42:08.904Z,3.60
2022-11-17T08:47:11.210Z,3.60
2022-11-17T08:52:13.510Z,3.50
2022-11-17T08:57:15.908Z,3.60
2022-11-17T09:02:18.409Z,3.70
2022-11-17T09:07:20.849Z,3.60
2022-11-17T09:12:24.211Z,3.60
2022-11-17T09:17:26.546Z,3.60
2022-11-17T09:22:28.894Z,3.70
2022-11-17T09:27:31.225Z,4.10
2022-11-17T09:32:36.692Z,3.60
2022-11-17T09:37:41.358Z,3.70
2022-11-17T09:42:44.170Z,3.80
2022-11-17T09:48:07.050Z,3.70
2022-11-17T09:53:26.066Z,3.80
2022-11-17T09:58:38.588Z,3.80
2022-11-17T10:03:46.351Z,3.80
2022-11-17T10:09:00.889Z,3.80
2022-11-17T10:14:07.860Z,3.70
2022-11-17T10:19:22.577Z,3.70
2022-11-17T10:24:42.171Z,3.80
2022-11-17T10:30:16.352Z,3.90
2022-11-17T10:35:20.208Z,3.90
2022-11-17T10:40:26.525Z,3.90
2022-11-17T10:45:29.303Z,3.80
2022-11-17T10:50:31.699Z,3.90
2022-11-17T10:55:34.440Z,4.40
2022-11-17T11:00:37.628Z,4.00
2022-11-17T11:06:20.702Z,3.90
2022-11-17T11:11:41.396Z,4.00
2022-11-17T11:16:48.348Z,3.90
2022-11-17T11:22:09.020Z,3.90
2022-11-17T11:27:39.205Z,4.00
2022-11-17T11:32:41.591Z,3.90
2022-11-17T11:38:20.723Z,3.90
2022-11-17T11:43:35.045Z,3.80
2022-11-17T11:48:40.925Z,3.80
2022-11-17T11:54:00.845Z,3.80
2022-11-17T11:59:26.130Z,3.80
2022-11-17T12:04:47.862Z,3.80
2022-11-17T12:10:05.983Z,3.80
2022-11-17T12:15:20.741Z,3.80
2022-11-17T12:20:38.053Z,3.80
2022-11-17T12:25:54.681Z,3.80
2022-11-17T12:31:09.750Z,3.70
2022-11-17T12:36:30.792Z,3.70
2022-11-17T12:41:48.643Z,3.60
2022-11-17T12:47:01.447Z,3.70
2022-11-17T12:52:16.182Z,3.60
2022-11-17T12:57:26.432Z,3.50
2022-11-17T13:02:47.549Z,3.50
2022-11-17T13:07:50.165Z,3.40
2022-11-17T13:13:29.595Z,3.50
2022-11-17T13:18:39.340Z,3.40
2022-11-17T13:23:45.427Z,3.40
2022-11-17T13:29:01.448Z,3.40
2022-11-17T13:34:13.303Z,3.30
2022-11-17T13:39:19.657Z,3.30
2022-11-17T13:44:27.920Z,3.30
2022-11-17T13:49:37.849Z,3.30
2022-11-17T13:54:44.998Z,3.30
2022-11-17T13:59:48.560Z,3.30
2022-11-17T14:05:09.555Z,3.20
2022-11-17T14:10:21.013Z,3.10
2022-11-17T14:15:32.450Z,3.10
2022-11-17T14:20:36.280Z,3.20
2022-11-17T14:25:44.210Z,3.10
2022-11-17T14:30:55.186Z,3.10
2022-11-17T14:35:59.717Z,3.00
2022-11-17T14:41:02.060Z,2.90
2022-11-17T14:46:04.545Z,3.00
2022-11-17T14:51:06.876Z,2.90
2022-11-17T14:56:09.942Z,2.90
2022-11-17T15:01:19.924Z,2.80
2022-11-17T15:06:22.941Z,2.80
2022-11-17T15:11:27.031Z,2.70
2022-11-17T15:16:29.397Z,2.60
2022-11-17T15:21:31.762Z,2.60
2022-11-17T15:26:34.241Z,2.60
2022-11-17T15:31:36.757Z,2.60
2022-11-17T15:36:39.162Z,2.60
2022-11-17T15:41:41.629Z,2.60
2022-11-17T15:46:47.356Z,2.60
2022-11-17T15:51:50.135Z,2.60
2022-11-17T15:56:52.504Z,2.60
2022-11-17T16:01:54.857Z,2.50
2022-11-17T16:06:57.307Z,2.50
2022-11-17T16:12:00.264Z,2.50
2022-11-17T16:17:02.715Z,2.50
2022-11-17T16:22:05.073Z,2.40
2022-11-17T16:27:07.427Z,2.50
2022-11-17T16:32:09.737Z,2.90
2022-11-17T16:37:13.248Z,2.50
2022-11-17T16:42:15.567Z,2.50
2022-11-17T16:47:17.877Z,2.40
2022-11-17T16:52:20.561Z,2.30
2022-11-17T16:57:22.954Z,2.20
2022-11-17T17:02:26.170Z,2.20
2022-11-17T17:07:28.688Z,2.10
2022-11-17T17:12:31.258Z,2.10
2022-11-17T17:17:33.584Z,2.10
2022-11-17T17:22:35.915Z,2.20
2022-11-17T17:27:38.405Z,2.20
2022-11-17T17:32:40.759Z,2.20
2022-11-17T17:37:43.072Z,2.10
2022-11-17T17:42:45.367Z,2.10
2022-11-17T17:47:47.674Z,2.10
2022-11-17T17:52:50.119Z,2.00
2022-11-17T17:57:52.448Z,2.00
2022-11-17T18:02:57.472Z,2.00
2022-11-17T18:08:01.716Z,2.00
2022-11-17T18:13:09.306Z,2.00
2022-11-17T18:18:13.133Z,2.10
2022-11-17T18:23:15.478Z,2.00
2022-11-17T18:28:17.809Z,2.00
2022-11-17T18:33:20.152Z,2.00
2022-11-17T18:38:22.624Z,2.00
2022-11-17T18:43:24.941Z,1.90
2022-11-17T18:48:27.266Z,1.90
2022-11-17T18:53:33.553Z,1.90
2022-11-17T18:58:36.520Z,1.80
2022-11-17T19:03:39.197Z,1.80
2022-11-17T19:08:41.661Z,1.80
2022-11-17T19:13:45.125Z,1.80
2022-11-17T19:18:49.218Z,1.70
2022-11-17T19:23:52.603Z,1.70
2022-11-17T19:29:03.355Z,1.70
2022-11-17T19:34:05.804Z,1.70
2022-11-17T19:39:08.133Z,1.70
2022-11-17T19:44:10.509Z,1.70
2022-11-17T19:49:12.864Z,1.70
2022-11-17T19:54:15.361Z,1.70
2022-11-17T19:59:17.945Z,1.60
2022-11-17T20:04:20.820Z,1.50
2022-11-17T20:09:23.155Z,1.50
2022-11-17T20:14:25.707Z,1.40
2022-11-17T20:19:28.040Z,1.40
2022-11-17T20:24:30.442Z,1.40
2022-11-17T20:29:32.784Z,1.50
2022-11-17T20:34:35.115Z,1.50
2022-11-17T20:39:37.418Z,1.40
2022-11-17T20:44:39.763Z,1.40
2022-11-17T20:49:42.095Z,1.40
2022-11-17T20:54:44.388Z,1.30
2022-11-17T20:59:46.666Z,1.50
2022-11-17T21:04:49.043Z,1.30
2022-11-17T21:09:51.401Z,1.20
2022-11-17T21:14:54.205Z,1.30
2022-11-17T21:19:56.625Z,1.30
2022-11-17T21:24:58.988Z,1.20
2022-11-17T21:30:04.556Z,1.20
2022-11-17T21:35:07.103Z,1.20
2022-11-17T21:40:09.945Z,1.10
2022-11-17T21:45:12.287Z,1.10
2022-11-17T21:50:14.695Z,1.20
2022-11-17T21:55:17.031Z,1.10
2022-11-17T22:00:19.598Z,1.10
2022-11-17T22:05:24.745Z,1.10
2022-11-17T22:10:27.113Z,1.10
2022-11-17T22:15:29.534Z,1.20
2022-11-17T22:20:31.852Z,1.20
2022-11-17T22:25:49.314Z,1.20
2022-11-17T22:30:52.976Z,1.20
2022-11-17T22:36:00.200Z,1.10
2022-11-17T22:41:04.598Z,1.20
2022-11-17T22:46:09.875Z,1.40
2022-11-17T22:51:12.754Z,1.00
2022-11-17T22:56:15.072Z,1.00
2022-11-17T23:01:17.430Z,1.00
2022-11-17T23:06:19.782Z,0.90
2022-11-17T23:11:36.526Z,0.90
2022-11-17T23:16:40.267Z,0.90
2022-11-17T23:21:42.666Z,0.90
2022-11-17T23:26:44.969Z,0.90
2022-11-17T23:31:47.302Z,0.90
2022-11-17T23:36:51.089Z,1.00
2022-11-17T23:41:53.394Z,1.00
2022-11-17T23:46:55.766Z,0.80
2022-11-17T23:51:58.161Z,0.90
2022-11-17T23:57:00.460Z,0.80
